createdAt,value
2023-12-18T00:01:29.406Z,100466.16
2023-12-18T00:03:56.639Z,100466.85
2023-12-18T00:06:23.972Z,100465.48
2023-12-18T00:08:51.054Z,100456.34
2023-12-18T00:11:18.049Z,100450.83
2023-12-18T00:13:45.225Z,100452.55
2023-12-18T00:16:13.413Z,100456.51
2023-12-18T00:18:40.733Z,100463.20
2023-12-18T00:21:07.828Z,100459.37
2023-12-18T00:23:35.059Z,100464.00
2023-12-18T00:26:02.194Z,100465.55
2023-12-18T00:28:29.331Z,100460.55
2023-12-18T00:30:56.700Z,100462.27
2023-12-18T00:33:24.152Z,100466.05
2023-12-18T00:35:51.681Z,100471.23
2023-12-18T00:38:18.773Z,100466.58
2023-12-18T00:40:45.842Z,100464.85
2023-12-18T00:43:13.028Z,100464.33
2023-12-18T00:45:40.201Z,100459.34
2023-12-18T00:48:07.761Z,100457.29
2023-12-18T00:50:34.943Z,100458.16
2023-12-18T00:53:02.066Z,100458.34
2023-12-18T00:55:29.361Z,100452.50
2023-12-18T00:57:56.761Z,100457.50
2023-12-18T01:00:24.190Z,100454.06
2023-12-18T01:02:51.223Z,100456.81
2023-12-18T01:05:18.312Z,100455.10
2023-12-18T01:07:45.405Z,100455.61
2023-12-18T01:10:12.627Z,100451.11
2023-12-18T01:12:39.719Z,100454.17
2023-12-18T01:15:07.330Z,100444.65
2023-12-18T01:17:36.457Z,100439.47
2023-12-18T01:20:06.281Z,100443.62
2023-12-18T01:22:33.761Z,100441.04
2023-12-18T01:25:01.526Z,100435.38
2023-12-18T01:27:28.705Z,100435.68
2023-12-18T01:29:55.964Z,100436.88
2023-12-18T01:32:23.375Z,100430.48
2023-12-18T01:34:50.597Z,100429.92
2023-12-18T01:37:17.585Z,100425.27
2023-12-18T01:39:44.805Z,100420.95
2023-12-18T01:42:12.387Z,100426.67
2023-12-18T01:44:39.674Z,100421.83
2023-12-18T01:47:08.249Z,100423.95
2023-12-18T01:49:36.644Z,100415.52
2023-12-18T01:52:04.922Z,100401.73
2023-12-18T01:54:32.591Z,100400.69
2023-12-18T01:57:01.157Z,100390.86
2023-12-18T01:59:28.909Z,100391.55
2023-12-18T02:01:56.118Z,100389.15
2023-12-18T02:04:23.572Z,100387.26
2023-12-18T02:06:50.703Z,100389.98
2023-12-18T02:09:17.923Z,100397.04
2023-12-18T02:11:45.752Z,100397.52
2023-12-18T02:14:13.542Z,100392.15
2023-12-18T02:16:41.611Z,100394.55
2023-12-18T02:19:25.889Z,100389.70
2023-12-18T02:21:55.462Z,100390.91
2023-12-18T02:24:23.062Z,100397.46
2023-12-18T02:26:51.554Z,100402.81
2023-12-18T02:29:18.785Z,100403.67
2023-12-18T02:31:46.093Z,100411.25
2023-12-18T02:34:13.512Z,100410.02
2023-12-18T02:36:40.743Z,100404.48
2023-12-18T02:39:07.991Z,100401.55
2023-12-18T02:41:35.250Z,100398.30
2023-12-18T02:44:02.778Z,100404.84
2023-12-18T02:46:29.892Z,100406.89
2023-12-18T02:48:56.891Z,100406.04
2023-12-18T02:51:24.075Z,100402.09
2023-12-18T02:53:51.345Z,100402.74
2023-12-18T02:56:18.524Z,100398.93
2023-12-18T02:58:45.778Z,100384.41
2023-12-18T03:01:13.039Z,100372.50
2023-12-18T03:03:40.162Z,100362.69
2023-12-18T03:06:07.452Z,100356.65
2023-12-18T03:08:35.101Z,100353.55
2023-12-18T03:11:02.997Z,100352.33
2023-12-18T03:13:30.229Z,100350.95
2023-12-18T03:15:58.392Z,100357.54
2023-12-18T03:18:25.725Z,100363.27
2023-12-18T03:20:52.860Z,100351.08
2023-12-18T03:23:20.000Z,100347.63
2023-12-18T03:25:47.426Z,100348.13
2023-12-18T03:28:16.735Z,100354.00
2023-12-18T03:30:44.685Z,100355.40
2023-12-18T03:33:12.268Z,100347.64
2023-12-18T03:35:39.362Z,100350.21
2023-12-18T03:38:06.716Z,100346.76
2023-12-18T03:40:33.896Z,100352.77
2023-12-18T03:43:01.310Z,100356.88
2023-12-18T03:45:28.376Z,100359.27
2023-12-18T03:47:55.464Z,100368.55
2023-12-18T03:50:22.478Z,100375.58
2023-12-18T03:52:49.617Z,100375.89
2023-12-18T03:55:17.260Z,100369.31
2023-12-18T03:57:44.759Z,100372.71
2023-12-18T04:00:12.754Z,100371.66
2023-12-18T04:02:40.041Z,100365.77
2023-12-18T04:05:07.711Z,100364.34
2023-12-18T04:07:34.909Z,100372.08
2023-12-18T04:10:02.041Z,100367.05
2023-12-18T04:12:29.292Z,100363.09
2023-12-18T04:14:56.315Z,100358.65
2023-12-18T04:17:23.768Z,100358.83
2023-12-18T04:19:51.341Z,100367.43
2023-12-18T04:22:18.543Z,100362.39
2023-12-18T04:24:45.722Z,100360.98
2023-12-18T04:27:12.950Z,100355.27
2023-12-18T04:29:40.212Z,100358.35
2023-12-18T04:32:07.588Z,100360.23
2023-12-18T04:34:35.377Z,100356.61
2023-12-18T04:37:04.042Z,100359.54
2023-12-18T04:39:33.564Z,100356.79
2023-12-18T04:42:00.773Z,100353.85
2023-12-18T04:44:29.028Z,100352.63
2023-12-18T04:46:56.677Z,100348.29
2023-12-18T04:49:25.194Z,100348.97
2023-12-18T04:51:52.515Z,100344.70
2023-12-18T04:54:19.759Z,100347.23
2023-12-18T04:56:47.114Z,100347.60
2023-12-18T04:59:14.882Z,100355.73
2023-12-18T05:01:41.930Z,100352.49
2023-12-18T05:04:09.304Z,100350.10
2023-12-18T05:06:36.494Z,100344.56
2023-12-18T05:09:03.826Z,100354.07
2023-12-18T05:11:31.228Z,100350.77
2023-12-18T05:13:58.248Z,100353.86
2023-12-18T05:16:25.531Z,100350.56
2023-12-18T05:18:54.301Z,100349.14
2023-12-18T05:21:21.459Z,100357.77
2023-12-18T05:23:50.373Z,100354.48
2023-12-18T05:26:17.785Z,100359.27
2023-12-18T05:28:44.827Z,100361.67
2023-12-18T05:31:12.808Z,100355.95
2023-12-18T05:33:40.748Z,100353.00
2023-12-18T05:36:08.324Z,100353.85
2023-12-18T05:38:35.606Z,100343.99
2023-12-18T05:41:02.781Z,100342.24
2023-12-18T05:43:29.814Z,100343.60
2023-12-18T05:45:57.225Z,100340.69
2023-12-18T05:48:24.722Z,100348.65
2023-12-18T05:50:52.114Z,100347.96
2023-12-18T05:53:19.376Z,100351.08
2023-12-18T05:55:47.235Z,100348.64
2023-12-18T05:58:14.432Z,100351.54
2023-12-18T06:00:41.745Z,100354.29
2023-12-18T06:03:08.983Z,100351.34
2023-12-18T06:05:36.371Z,100356.33
2023-12-18T06:08:04.540Z,100351.98
2023-12-18T06:10:31.699Z,100355.62
2023-12-18T06:12:59.141Z,100355.09
2023-12-18T06:15:26.402Z,100358.39
2023-12-18T06:17:53.545Z,100354.93
2023-12-18T06:20:20.819Z,100358.35
2023-12-18T06:22:47.985Z,100353.70
2023-12-18T06:25:15.463Z,100354.55
2023-12-18T06:27:45.106Z,100351.44
2023-12-18T06:30:14.274Z,100352.29
2023-12-18T06:32:42.392Z,100352.65
2023-12-18T06:35:09.819Z,100356.80
2023-12-18T06:37:37.026Z,100356.48
2023-12-18T06:40:04.679Z,100354.44
2023-12-18T06:42:31.688Z,100356.48
2023-12-18T06:44:58.932Z,100353.19
2023-12-18T06:47:26.312Z,100347.10
2023-12-18T06:49:53.611Z,100349.11
2023-12-18T06:52:20.710Z,100349.60
2023-12-18T06:54:47.961Z,100351.65
2023-12-18T06:57:16.979Z,100351.09
2023-12-18T06:59:44.544Z,100343.81
2023-12-18T07:02:11.887Z,100346.89
2023-12-18T07:04:39.568Z,100346.15
2023-12-18T07:07:08.146Z,100345.74
2023-12-18T07:09:35.460Z,100343.67
2023-12-18T07:12:03.184Z,100345.34
2023-12-18T07:14:30.435Z,100348.55
2023-12-18T07:16:57.424Z,100341.92
2023-12-18T07:19:24.565Z,100343.91
2023-12-18T07:21:51.912Z,100346.27
2023-12-18T07:24:19.178Z,100342.96
2023-12-18T07:26:46.314Z,100347.59
2023-12-18T07:29:13.871Z,100341.73
2023-12-18T07:31:41.377Z,100343.08
2023-12-18T07:34:08.804Z,100346.85
2023-12-18T07:36:40.051Z,100341.80
2023-12-18T07:39:08.213Z,100346.53
2023-12-18T07:41:35.441Z,100344.40
2023-12-18T07:44:03.659Z,100342.92
2023-12-18T07:46:30.932Z,100337.65
2023-12-18T07:48:58.351Z,100337.52
2023-12-18T07:51:25.657Z,100336.94
2023-12-18T07:53:52.898Z,100335.86
2023-12-18T07:56:20.047Z,100334.27
2023-12-18T07:58:47.269Z,100333.36
2023-12-18T08:01:20.467Z,100335.17
2023-12-18T08:03:48.853Z,100338.38
2023-12-18T08:06:16.095Z,100340.73
2023-12-18T08:08:43.604Z,100344.58
2023-12-18T08:11:10.967Z,100343.94
2023-12-18T08:13:42.122Z,100336.72
2023-12-18T08:16:11.830Z,100336.41
2023-12-18T08:18:39.220Z,100339.73
2023-12-18T08:21:06.490Z,100335.48
2023-12-18T08:23:33.828Z,100334.15
2023-12-18T08:26:01.173Z,100335.88
2023-12-18T08:28:28.253Z,100337.41
2023-12-18T08:30:55.376Z,100335.81
2023-12-18T08:33:22.559Z,100330.85
2023-12-18T08:35:50.709Z,100334.52
2023-12-18T08:38:17.773Z,100337.69
2023-12-18T08:40:46.348Z,100337.24
2023-12-18T08:43:13.511Z,100335.54
2023-12-18T08:45:41.353Z,100333.01
2023-12-18T08:48:09.123Z,100333.43
2023-12-18T08:50:36.476Z,100332.08
2023-12-18T08:53:04.083Z,100331.73
2023-12-18T08:55:32.826Z,100335.59
2023-12-18T08:57:59.919Z,100334.27
2023-12-18T09:00:27.539Z,100331.09
2023-12-18T09:02:55.563Z,100333.60
2023-12-18T09:05:22.851Z,100330.63
2023-12-18T09:07:50.096Z,100326.55
2023-12-18T09:10:18.868Z,100327.94
2023-12-18T09:12:46.032Z,100329.13
2023-12-18T09:15:15.899Z,100319.81
2023-12-18T09:17:44.256Z,100313.48
2023-12-18T09:20:11.916Z,100309.60
2023-12-18T09:22:39.487Z,100301.19
2023-12-18T09:25:07.069Z,100295.64
2023-12-18T09:27:34.304Z,100287.48
2023-12-18T09:30:01.846Z,100280.66
2023-12-18T09:32:29.502Z,100277.08
2023-12-18T09:34:56.944Z,100275.71
2023-12-18T09:37:26.007Z,100268.47
2023-12-18T09:39:53.376Z,100268.05
2023-12-18T09:42:22.016Z,100268.59
2023-12-18T09:44:50.497Z,100258.73
2023-12-18T09:47:17.957Z,100255.20
2023-12-18T09:49:45.988Z,100260.45
2023-12-18T09:52:17.867Z,100257.34
2023-12-18T09:54:46.842Z,100255.38
2023-12-18T09:57:18.587Z,100255.23
2023-12-18T09:59:46.309Z,100249.56
2023-12-18T10:02:14.516Z,100245.63
2023-12-18T10:04:43.115Z,100243.20
2023-12-18T10:07:10.549Z,100238.68
2023-12-18T10:09:37.960Z,100233.52
2023-12-18T10:12:05.799Z,100232.70
2023-12-18T10:14:34.641Z,100237.74
2023-12-18T10:17:01.956Z,100234.16
2023-12-18T10:19:29.400Z,100228.52
2023-12-18T10:21:56.637Z,100234.04
2023-12-18T10:24:23.852Z,100231.13
2023-12-18T10:26:51.202Z,100226.17
2023-12-18T10:29:18.759Z,100224.11
2023-12-18T10:31:46.299Z,100223.38
2023-12-18T10:34:18.131Z,100215.73
2023-12-18T10:36:46.724Z,100212.20
2023-12-18T10:39:19.493Z,100207.27
2023-12-18T10:41:53.664Z,100210.43
2023-12-18T10:44:23.946Z,100207.16
2023-12-18T10:46:52.542Z,100202.19
2023-12-18T10:49:21.452Z,100198.67
2023-12-18T10:51:52.386Z,100194.14
2023-12-18T10:54:20.694Z,100192.39
2023-12-18T10:56:49.386Z,100194.09
2023-12-18T10:59:19.517Z,100190.44
2023-12-18T11:01:47.755Z,100191.09
2023-12-18T11:04:17.265Z,100185.26
2023-12-18T11:06:47.937Z,100183.90
2023-12-18T11:09:15.175Z,100181.39
2023-12-18T11:11:42.769Z,100181.09
2023-12-18T11:14:18.414Z,100181.09
2023-12-18T11:16:54.780Z,100180.77
2023-12-18T11:19:46.319Z,100177.95
2023-12-18T11:22:17.060Z,100178.17
2023-12-18T11:24:46.979Z,100174.25
2023-12-18T11:27:18.022Z,100170.42
2023-12-18T11:29:49.017Z,100163.34
2023-12-18T11:32:43.229Z,100164.64
2023-12-18T11:35:12.437Z,100159.59
2023-12-18T11:37:53.797Z,100155.69
2023-12-18T11:40:31.803Z,100153.08
2023-12-18T11:42:59.931Z,100150.44
2023-12-18T11:45:28.221Z,100154.50
2023-12-18T11:47:58.756Z,100147.48
2023-12-18T11:50:27.721Z,100145.66
2023-12-18T11:52:56.072Z,100137.77
2023-12-18T11:55:42.199Z,100131.14
2023-12-18T11:58:09.830Z,100136.02
2023-12-18T12:00:38.970Z,100129.27
2023-12-18T12:03:06.492Z,100129.82
2023-12-18T12:05:34.175Z,100127.06
2023-12-18T12:08:01.941Z,100128.43
2023-12-18T12:10:29.207Z,100128.23
2023-12-18T12:12:58.439Z,100124.94
2023-12-18T12:15:26.085Z,100121.73
2023-12-18T12:18:06.127Z,100120.58
2023-12-18T12:20:34.273Z,100114.18
2023-12-18T12:23:01.398Z,100120.58
2023-12-18T12:25:29.100Z,100118.33
2023-12-18T12:27:56.478Z,100116.57
2023-12-18T12:30:24.203Z,100115.27
2023-12-18T12:32:53.498Z,100115.71
2023-12-18T12:35:21.108Z,100113.73
2023-12-18T12:37:48.876Z,100109.34
2023-12-18T12:40:16.234Z,100105.35
2023-12-18T12:42:44.185Z,100100.71
2023-12-18T12:45:11.906Z,100097.58
2023-12-18T12:47:40.545Z,100097.34
2023-12-18T12:50:09.058Z,100094.08
2023-12-18T12:52:38.230Z,100100.63
2023-12-18T12:55:06.538Z,100090.95
2023-12-18T12:57:34.057Z,100088.22
2023-12-18T13:00:01.823Z,100082.56
2023-12-18T13:02:29.605Z,100081.80
2023-12-18T13:04:57.232Z,100080.33
2023-12-18T13:07:24.774Z,100082.92
2023-12-18T13:09:52.866Z,100083.55
2023-12-18T13:12:20.534Z,100081.79
2023-12-18T13:14:50.056Z,100078.88
2023-12-18T13:17:17.388Z,100078.14
2023-12-18T13:19:44.805Z,100076.16
2023-12-18T13:22:12.332Z,100079.08
2023-12-18T13:24:39.654Z,100077.88
2023-12-18T13:27:07.009Z,100077.89
2023-12-18T13:29:34.494Z,100073.73
2023-12-18T13:32:04.651Z,100068.94
2023-12-18T13:34:32.912Z,100068.77
2023-12-18T13:37:02.098Z,100063.30
2023-12-18T13:39:29.717Z,100058.09
2023-12-18T13:42:00.442Z,100060.49
2023-12-18T13:44:29.391Z,100058.82
2023-12-18T13:46:56.842Z,100064.73
2023-12-18T13:49:24.195Z,100061.54
2023-12-18T13:51:51.741Z,100065.89
2023-12-18T13:54:22.268Z,100063.02
2023-12-18T13:56:49.722Z,100061.48
2023-12-18T13:59:16.852Z,100063.36
2023-12-18T14:01:45.128Z,100062.98
2023-12-18T14:04:12.824Z,100065.95
2023-12-18T14:06:40.606Z,100073.02
2023-12-18T14:09:10.327Z,100072.80
2023-12-18T14:11:37.539Z,100072.02
2023-12-18T14:14:04.760Z,100067.05
2023-12-18T14:16:32.049Z,100071.82
2023-12-18T14:18:59.656Z,100071.45
2023-12-18T14:21:27.319Z,100072.25
2023-12-18T14:23:54.710Z,100065.38
2023-12-18T14:26:22.314Z,100060.14
2023-12-18T14:28:49.846Z,100059.32
2023-12-18T14:31:17.593Z,100064.35
2023-12-18T14:33:45.021Z,100057.20
2023-12-18T14:36:12.792Z,100063.58
2023-12-18T14:38:40.031Z,100066.85
2023-12-18T14:41:08.137Z,100070.02
2023-12-18T14:43:35.869Z,100079.17
2023-12-18T14:46:04.627Z,100081.19
2023-12-18T14:48:35.724Z,100080.25
2023-12-18T14:51:03.762Z,100083.41
2023-12-18T14:53:30.946Z,100086.38
2023-12-18T14:55:58.002Z,100081.13
2023-12-18T14:58:25.505Z,100083.30
2023-12-18T15:00:53.018Z,100080.23
2023-12-18T15:03:20.734Z,100082.54
2023-12-18T15:05:49.899Z,100083.62
2023-12-18T15:08:17.776Z,100088.73
2023-12-18T15:10:45.509Z,100086.94
2023-12-18T15:13:13.376Z,100090.41
2023-12-18T15:15:41.173Z,100081.56
2023-12-18T15:18:08.732Z,100079.73
2023-12-18T15:20:35.953Z,100072.94
2023-12-18T15:23:03.519Z,100073.23
2023-12-18T15:25:30.741Z,100071.58
2023-12-18T15:27:58.208Z,100073.88
2023-12-18T15:30:25.741Z,100074.29
2023-12-18T15:32:53.292Z,100070.36
2023-12-18T15:35:21.236Z,100066.45
2023-12-18T15:37:48.870Z,100063.26
2023-12-18T15:40:16.804Z,100065.58
2023-12-18T15:42:44.275Z,100067.75
2023-12-18T15:45:12.040Z,100065.95
2023-12-18T15:47:39.713Z,100070.35
2023-12-18T15:50:08.796Z,100063.98
2023-12-18T15:52:36.405Z,100064.02
2023-12-18T15:55:04.308Z,100062.36
2023-12-18T15:57:32.066Z,100065.52
2023-12-18T15:59:59.581Z,100065.39
2023-12-18T16:02:27.165Z,100060.29
2023-12-18T16:04:55.039Z,100059.15
2023-12-18T16:07:22.581Z,100055.47
2023-12-18T16:09:50.274Z,100054.70
2023-12-18T16:12:19.231Z,100056.35
2023-12-18T16:14:46.521Z,100058.85
2023-12-18T16:17:13.981Z,100067.25
2023-12-18T16:19:41.320Z,100059.64
2023-12-18T16:22:08.652Z,100059.76
2023-12-18T16:24:36.706Z,100061.56
2023-12-18T16:27:07.121Z,100057.18
2023-12-18T16:29:39.269Z,100055.20
2023-12-18T16:32:08.248Z,100050.79
2023-12-18T16:34:40.514Z,100048.91
2023-12-18T16:37:09.114Z,100050.30
2023-12-18T16:39:43.836Z,100049.99
2023-12-18T16:42:12.325Z,100047.92
2023-12-18T16:44:40.420Z,100050.34
2023-12-18T16:47:08.290Z,100053.59
2023-12-18T16:49:35.803Z,100051.36
2023-12-18T16:52:03.316Z,100044.48
2023-12-18T16:54:30.708Z,100038.84
2023-12-18T16:56:58.034Z,100036.48
2023-12-18T16:59:25.670Z,100040.20
2023-12-18T17:01:53.116Z,100039.80
2023-12-18T17:04:21.299Z,100032.80
2023-12-18T17:06:48.728Z,100032.69
2023-12-18T17:09:16.918Z,100039.08
2023-12-18T17:11:44.272Z,100039.70
2023-12-18T17:14:13.165Z,100033.90
2023-12-18T17:16:43.166Z,100036.49
2023-12-18T17:19:10.656Z,100029.52
2023-12-18T17:21:38.208Z,100024.46
2023-12-18T17:24:08.056Z,100022.30
2023-12-18T17:26:35.266Z,100024.78
2023-12-18T17:29:02.630Z,100025.92
2023-12-18T17:31:30.505Z,100030.67
2023-12-18T17:33:58.341Z,100028.70
2023-12-18T17:36:27.377Z,100028.55
2023-12-18T17:38:55.660Z,100028.27
2023-12-18T17:41:24.039Z,100030.52
2023-12-18T17:43:53.441Z,100036.23
2023-12-18T17:46:20.901Z,100034.73
2023-12-18T17:48:48.366Z,100039.05
2023-12-18T17:51:16.496Z,100043.35
2023-12-18T17:53:43.759Z,100044.37
2023-12-18T17:56:11.054Z,100039.73
2023-12-18T17:58:38.780Z,100029.41
2023-12-18T18:01:06.208Z,100031.46
2023-12-18T18:03:34.918Z,100025.48
2023-12-18T18:06:02.474Z,100022.60
2023-12-18T18:08:30.311Z,100037.57
2023-12-18T18:10:57.895Z,100040.67
2023-12-18T18:13:25.148Z,100043.57
2023-12-18T18:15:55.195Z,100045.09
2023-12-18T18:18:22.815Z,100045.59
2023-12-18T18:20:50.284Z,100045.08
2023-12-18T18:23:17.820Z,100045.59
2023-12-18T18:25:45.210Z,100048.34
2023-12-18T18:28:12.793Z,100036.56
2023-12-18T18:30:42.774Z,100032.67
2023-12-18T18:33:12.259Z,100024.86
2023-12-18T18:35:39.901Z,100020.30
2023-12-18T18:38:07.343Z,100026.72
2023-12-18T18:40:35.120Z,100023.35
2023-12-18T18:43:02.467Z,100015.68
2023-12-18T18:45:29.725Z,100016.02
2023-12-18T18:47:57.079Z,100023.08
2023-12-18T18:50:24.443Z,100021.75
2023-12-18T18:52:51.803Z,100016.97
2023-12-18T18:55:19.275Z,100012.69
2023-12-18T18:57:48.568Z,100006.85
2023-12-18T19:00:17.046Z,100014.77
2023-12-18T19:02:44.244Z,100018.59
2023-12-18T19:05:11.666Z,100021.15
2023-12-18T19:07:38.950Z,100024.59
2023-12-18T19:10:07.141Z,100030.59
2023-12-18T19:12:38.365Z,100037.15
2023-12-18T19:15:06.394Z,100033.41
2023-12-18T19:17:33.427Z,100035.80
2023-12-18T19:20:00.634Z,100034.40
2023-12-18T19:22:29.330Z,100032.19
2023-12-18T19:24:56.814Z,100032.57
2023-12-18T19:27:24.159Z,100031.25
2023-12-18T19:29:51.211Z,100031.11
2023-12-18T19:32:18.877Z,100037.98
2023-12-18T19:34:46.650Z,100021.02
2023-12-18T19:37:13.997Z,100028.94
2023-12-18T19:39:41.625Z,100026.73
2023-12-18T19:42:08.827Z,100014.55
2023-12-18T19:44:36.179Z,100013.34
2023-12-18T19:47:03.955Z,100007.00
2023-12-18T19:49:31.241Z,100001.86
2023-12-18T19:51:58.733Z,99998.42
2023-12-18T19:54:25.882Z,100005.08
2023-12-18T19:56:53.090Z,100014.48
2023-12-18T19:59:20.447Z,100010.34
2023-12-18T20:01:47.576Z,100005.66
2023-12-18T20:04:16.394Z,99996.02
2023-12-18T20:06:45.685Z,99993.75
2023-12-18T20:09:13.016Z,99997.48
2023-12-18T20:11:40.071Z,99994.32
2023-12-18T20:14:07.913Z,99993.41
2023-12-18T20:16:36.372Z,99979.09
2023-12-18T20:19:05.088Z,99981.58
2023-12-18T20:21:32.862Z,99984.42
2023-12-18T20:23:59.956Z,99987.77
2023-12-18T20:26:27.086Z,99981.50
2023-12-18T20:28:54.593Z,99976.79
2023-12-18T20:31:22.362Z,99973.96
2023-12-18T20:33:50.103Z,99980.42
2023-12-18T20:36:17.577Z,99987.59
2023-12-18T20:38:46.388Z,99987.00
2023-12-18T20:41:13.865Z,99994.16
2023-12-18T20:43:41.012Z,99995.13
2023-12-18T20:46:08.342Z,99991.96
2023-12-18T20:48:35.596Z,99990.36
2023-12-18T20:51:03.047Z,99989.10
2023-12-18T20:53:30.166Z,99982.02
2023-12-18T20:55:57.167Z,99977.91
2023-12-18T20:58:24.801Z,99978.08
2023-12-18T21:00:52.044Z,99978.77
2023-12-18T21:03:19.274Z,99984.58
2023-12-18T21:05:46.773Z,99980.41
2023-12-18T21:08:13.913Z,99977.80
2023-12-18T21:10:41.422Z,99990.23
2023-12-18T21:13:09.435Z,99999.81
2023-12-18T21:15:36.851Z,100001.45
2023-12-18T21:18:04.300Z,99988.00
2023-12-18T21:20:31.456Z,99994.48
2023-12-18T21:22:58.608Z,99996.17
2023-12-18T21:25:25.958Z,99990.96
2023-12-18T21:27:53.225Z,99988.21
2023-12-18T21:30:20.430Z,99983.10
2023-12-18T21:32:47.848Z,99991.06
2023-12-18T21:35:15.469Z,99993.52
2023-12-18T21:37:42.940Z,99987.36
2023-12-18T21:40:10.607Z,99979.27
2023-12-18T21:42:37.808Z,99975.95
2023-12-18T21:45:05.445Z,99974.73
2023-12-18T21:47:32.607Z,99970.80
2023-12-18T21:50:00.325Z,99968.25
2023-12-18T21:52:27.975Z,99967.94
2023-12-18T21:54:56.324Z,99979.78
2023-12-18T21:57:23.484Z,99980.08
2023-12-18T21:59:50.916Z,99976.77
2023-12-18T22:02:17.928Z,99977.91
2023-12-18T22:04:45.107Z,99983.19
2023-12-18T22:07:12.313Z,99980.02
2023-12-18T22:09:40.170Z,99972.21
2023-12-18T22:12:08.039Z,99958.21
2023-12-18T22:14:35.116Z,99960.89
2023-12-18T22:17:02.287Z,99962.77
2023-12-18T22:19:29.464Z,99958.65
2023-12-18T22:21:56.936Z,99945.58
2023-12-18T22:24:24.173Z,99950.16
2023-12-18T22:26:52.645Z,99947.76
2023-12-18T22:29:19.745Z,99940.54
2023-12-18T22:31:47.269Z,99939.34
2023-12-18T22:34:14.443Z,99930.70
2023-12-18T22:36:41.575Z,99927.20
2023-12-18T22:39:11.863Z,99922.70
2023-12-18T22:41:41.157Z,99916.17
2023-12-18T22:44:08.695Z,99921.54
2023-12-18T22:46:37.656Z,99914.68
2023-12-18T22:49:04.748Z,99916.36
2023-12-18T22:51:32.267Z,99910.97
2023-12-18T22:53:59.322Z,99912.63
2023-12-18T22:56:26.571Z,99908.13
2023-12-18T22:58:53.969Z,99908.23
2023-12-18T23:01:22.406Z,99899.56
2023-12-18T23:03:49.768Z,99895.39
2023-12-18T23:06:17.003Z,99895.19
2023-12-18T23:08:45.404Z,99890.33
2023-12-18T23:11:12.641Z,99895.45
2023-12-18T23:13:41.444Z,99896.79
2023-12-18T23:16:08.421Z,99905.05
2023-12-18T23:18:35.465Z,99900.38
2023-12-18T23:21:06.191Z,99898.43
2023-12-18T23:23:33.287Z,99899.60
2023-12-18T23:26:00.647Z,99889.22
2023-12-18T23:28:28.915Z,99883.71
2023-12-18T23:30:56.048Z,99867.14
2023-12-18T23:33:28.356Z,99860.96
2023-12-18T23:35:59.277Z,99857.06
2023-12-18T23:38:26.613Z,99845.23
2023-12-18T23:40:54.047Z,99842.71
2023-12-18T23:43:21.118Z,99841.55
2023-12-18T23:45:48.209Z,99841.80
2023-12-18T23:48:15.430Z,99844.48
2023-12-18T23:50:44.693Z,99850.05
2023-12-18T23:53:13.182Z,99852.27
2023-12-18T23:55:40.514Z,99849.98
2023-12-18T23:58:07.864Z,99853.05
